createdAt,value
2019-06-15T00:00:50.499Z,22.30
2019-06-15T00:05:52.081Z,22.20
2019-06-15T00:10:53.675Z,22.20
2019-06-15T00:16:11.920Z,22.30
2019-06-15T00:21:13.567Z,22.20
2019-06-15T00:26:15.566Z,22.20
2019-06-15T00:31:18.271Z,22.10
2019-06-15T00:36:20.272Z,22.10
2019-06-15T00:41:22.143Z,22.10
2019-06-15T00:46:24.094Z,22.10
2019-06-15T00:51:26.277Z,22.10
2019-06-15T00:56:27.969Z,22.20
2019-06-15T01:01:29.569Z,22.10
2019-06-15T01:06:31.197Z,22.10
2019-06-15T01:11:32.864Z,22.10
2019-06-15T01:16:34.470Z,22.00
2019-06-15T01:21:36.110Z,22.00
2019-06-15T01:26:38.079Z,21.90
2019-06-15T01:31:39.770Z,21.80
2019-06-15T01:36:41.831Z,21.80
2019-06-15T01:41:43.726Z,21.80
2019-06-15T01:46:45.611Z,21.60
2019-06-15T01:51:47.428Z,21.80
2019-06-15T01:56:49.031Z,21.80
2019-06-15T02:01:50.824Z,21.70
2019-06-15T02:06:52.433Z,21.70
2019-06-15T02:11:55.826Z,21.80
2019-06-15T02:16:57.545Z,21.80
2019-06-15T02:21:59.532Z,21.80
2019-06-15T02:27:01.338Z,21.80
2019-06-15T02:32:03.221Z,21.80
2019-06-15T02:37:05.375Z,21.80
2019-06-15T02:42:07.173Z,21.70
2019-06-15T02:47:09.219Z,21.70
2019-06-15T02:52:11.031Z,21.60
2019-06-15T02:57:12.724Z,21.50
2019-06-15T03:02:14.998Z,21.40
2019-06-15T03:07:16.931Z,21.30
2019-06-15T03:12:18.990Z,21.00
2019-06-15T03:17:21.095Z,20.70
2019-06-15T03:22:23.078Z,20.50
2019-06-15T03:27:24.664Z,20.30
2019-06-15T03:32:26.619Z,20.30
2019-06-15T03:37:28.517Z,20.10
2019-06-15T03:42:30.113Z,20.00
2019-06-15T03:47:32.043Z,20.10
2019-06-15T03:52:33.859Z,19.90
2019-06-15T03:57:35.445Z,19.90
2019-06-15T04:02:37.051Z,20.00
2019-06-15T04:07:38.638Z,19.90
2019-06-15T04:12:40.232Z,20.00
2019-06-15T04:17:41.840Z,20.20
2019-06-15T04:22:43.477Z,20.40
2019-06-15T04:27:45.408Z,20.40
2019-06-15T04:32:47.018Z,20.50
2019-06-15T04:37:48.612Z,20.60
2019-06-15T04:42:50.627Z,20.70
2019-06-15T04:47:52.220Z,20.80
2019-06-15T04:52:53.934Z,21.10
2019-06-15T04:57:55.735Z,21.20
2019-06-15T05:02:57.333Z,21.30
2019-06-15T05:07:58.938Z,21.40
2019-06-15T05:13:00.988Z,21.60
2019-06-15T05:18:02.913Z,21.60
2019-06-15T05:23:04.743Z,21.60
2019-06-15T05:28:06.544Z,21.50
2019-06-15T05:33:08.128Z,21.60
2019-06-15T05:38:09.844Z,21.70
2019-06-15T05:43:11.641Z,21.80
2019-06-15T05:48:13.639Z,21.80
2019-06-15T05:53:15.343Z,21.90
2019-06-15T05:58:17.014Z,22.10
2019-06-15T06:03:18.713Z,22.30
2019-06-15T06:08:20.315Z,22.40
2019-06-15T06:13:22.527Z,22.60
2019-06-15T06:18:24.124Z,22.70
2019-06-15T06:23:25.888Z,22.80
2019-06-15T06:28:27.557Z,22.90
2019-06-15T06:33:29.250Z,23.10
2019-06-15T06:38:31.320Z,23.20
2019-06-15T06:43:33.298Z,23.40
2019-06-15T06:48:34.899Z,23.50
2019-06-15T06:53:36.609Z,23.60
2019-06-15T06:58:38.330Z,23.60
2019-06-15T07:03:39.920Z,23.80
2019-06-15T07:08:41.674Z,23.80
2019-06-15T07:13:43.401Z,24.00
2019-06-15T07:18:45.995Z,24.20
2019-06-15T07:23:47.820Z,24.40
2019-06-15T07:28:49.413Z,24.60
2019-06-15T07:33:51.643Z,24.90
2019-06-15T07:38:53.471Z,25.20
2019-06-15T07:43:55.149Z,25.20
2019-06-15T07:48:57.074Z,25.20
2019-06-15T07:53:58.710Z,25.40
2019-06-15T07:59:00.300Z,25.60
2019-06-15T08:04:02.114Z,25.80
2019-06-15T08:09:05.377Z,25.90
2019-06-15T08:14:07.285Z,26.10
2019-06-15T08:19:09.141Z,26.30
2019-06-15T08:24:11.149Z,26.50
2019-06-15T08:29:13.034Z,26.50
2019-06-15T08:34:15.010Z,26.70
2019-06-15T08:39:16.858Z,27.00
2019-06-15T08:44:18.490Z,27.10
2019-06-15T08:49:20.310Z,27.20
2019-06-15T08:54:22.213Z,27.30
2019-06-15T08:59:24.232Z,27.60
2019-06-15T09:04:26.244Z,27.70
2019-06-15T09:09:29.071Z,28.00
2019-06-15T09:14:30.935Z,28.10
2019-06-15T09:19:32.577Z,28.30
2019-06-15T09:24:34.591Z,28.40
2019-06-15T09:29:36.553Z,28.50
2019-06-15T09:34:38.153Z,28.60
2019-06-15T09:39:40.092Z,28.80
2019-06-15T09:44:42.101Z,29.10
2019-06-15T09:49:44.485Z,29.20
2019-06-15T09:54:47.455Z,29.30
2019-06-15T09:59:49.169Z,29.30
2019-06-15T10:04:50.767Z,29.70
2019-06-15T10:09:52.674Z,30.00
2019-06-15T10:14:54.367Z,30.50
2019-06-15T10:19:56.305Z,30.40
2019-06-15T10:24:58.051Z,30.60
2019-06-15T10:29:59.689Z,30.50
2019-06-15T10:35:02.021Z,30.40
2019-06-15T10:40:05.999Z,30.90
2019-06-15T10:45:08.612Z,31.20
2019-06-15T10:50:11.126Z,31.40
2019-06-15T10:55:13.288Z,30.90
2019-06-15T11:00:16.566Z,30.90
2019-06-15T11:05:19.676Z,31.20
2019-06-15T11:10:46.503Z,31.20
2019-06-15T11:15:48.799Z,30.60
2019-06-15T11:20:50.892Z,30.50
2019-06-15T11:25:52.624Z,30.20
2019-06-15T11:30:54.646Z,30.20
2019-06-15T11:35:56.789Z,30.40
2019-06-15T11:40:58.723Z,30.50
2019-06-15T11:46:00.520Z,30.60
2019-06-15T11:51:02.696Z,30.70
2019-06-15T11:56:04.893Z,31.00
2019-06-15T12:01:06.597Z,31.70
2019-06-15T12:06:08.188Z,31.70
2019-06-15T12:11:10.903Z,31.40
2019-06-15T12:16:12.503Z,31.70
2019-06-15T12:21:14.199Z,31.90
2019-06-15T12:26:15.912Z,31.80
2019-06-15T12:31:17.709Z,32.00
2019-06-15T12:36:19.829Z,31.70
2019-06-15T12:41:21.575Z,31.60
2019-06-15T12:46:23.171Z,32.50
2019-06-15T12:51:24.977Z,32.70
2019-06-15T12:56:26.962Z,33.00
2019-06-15T13:01:29.848Z,33.40
2019-06-15T13:06:31.467Z,33.90
2019-06-15T13:11:33.496Z,33.70
2019-06-15T13:16:39.336Z,33.70
2019-06-15T13:21:38.853Z,33.70
2019-06-15T13:26:40.691Z,33.00
2019-06-15T13:31:42.682Z,33.40
2019-06-15T13:36:45.635Z,33.80
2019-06-15T13:41:48.081Z,34.50
2019-06-15T13:46:49.948Z,34.20
2019-06-15T13:51:51.658Z,34.00
2019-06-15T13:56:53.782Z,34.30
2019-06-15T14:01:55.488Z,34.30
2019-06-15T14:06:57.409Z,34.10
2019-06-15T14:11:59.154Z,34.40
2019-06-15T14:17:00.848Z,34.00
2019-06-15T14:22:02.567Z,34.30
2019-06-15T14:27:04.503Z,34.20
2019-06-15T14:32:06.215Z,34.00
2019-06-15T14:37:07.821Z,33.20
2019-06-15T14:42:09.609Z,33.90
2019-06-15T14:47:11.699Z,33.50
2019-06-15T14:52:13.391Z,33.50
2019-06-15T14:57:16.186Z,33.10
2019-06-15T15:02:19.222Z,33.00
2019-06-15T15:07:20.953Z,33.00
2019-06-15T15:12:23.129Z,32.90
2019-06-15T15:17:26.902Z,33.00
2019-06-15T15:22:29.261Z,33.00
2019-06-15T15:27:30.969Z,33.00
2019-06-15T15:32:32.886Z,32.80
2019-06-15T15:37:36.933Z,33.00
2019-06-15T15:42:38.092Z,32.80
2019-06-15T15:47:40.890Z,32.80
2019-06-15T15:52:42.506Z,33.00
2019-06-15T15:57:46.666Z,32.30
2019-06-15T16:02:52.169Z,32.30
2019-06-15T16:07:51.562Z,31.70
2019-06-15T16:12:56.679Z,31.10
2019-06-15T16:17:58.288Z,31.40
2019-06-15T16:22:59.960Z,30.60
2019-06-15T16:28:01.625Z,30.60
2019-06-15T16:33:04.219Z,30.30
2019-06-15T16:38:07.352Z,30.10
2019-06-15T16:43:09.404Z,30.20
2019-06-15T16:48:11.102Z,29.70
2019-06-15T16:53:12.851Z,29.60
2019-06-15T16:58:16.138Z,29.30
2019-06-15T17:03:24.969Z,28.50
2019-06-15T17:08:23.511Z,28.40
2019-06-15T17:13:26.022Z,28.10
2019-06-15T17:18:27.915Z,27.80
2019-06-15T17:23:29.531Z,27.60
2019-06-15T17:28:31.593Z,27.50
2019-06-15T17:33:37.910Z,27.00
2019-06-15T17:38:38.266Z,26.90
2019-06-15T17:43:40.294Z,27.00
2019-06-15T17:48:41.904Z,26.70
2019-06-15T17:53:43.521Z,26.60
2019-06-15T17:58:46.357Z,26.60
2019-06-15T18:03:54.127Z,26.50
2019-06-15T18:08:52.021Z,26.40
2019-06-15T18:13:56.424Z,26.30
2019-06-15T18:18:57.327Z,26.20
2019-06-15T18:23:59.306Z,26.00
2019-06-15T18:29:01.998Z,25.70
2019-06-15T18:34:12.191Z,25.70
2019-06-15T18:39:08.638Z,25.50
2019-06-15T18:44:10.734Z,25.40
2019-06-15T18:49:12.679Z,25.20
2019-06-15T18:54:15.974Z,25.00
2019-06-15T18:59:17.906Z,24.90
2019-06-15T19:04:26.890Z,24.70
2019-06-15T19:09:23.145Z,24.50
2019-06-15T19:14:27.186Z,24.30
2019-06-15T19:19:28.708Z,24.10
2019-06-15T19:24:30.322Z,24.00
2019-06-15T19:29:32.005Z,23.90
2019-06-15T19:34:44.306Z,23.80
2019-06-15T19:39:38.298Z,23.70
2019-06-15T19:44:40.012Z,23.60
2019-06-15T19:49:41.612Z,23.50
2019-06-15T19:54:43.307Z,23.40
2019-06-15T19:59:47.384Z,23.30
2019-06-15T20:04:59.365Z,23.30
2019-06-15T20:09:52.821Z,23.20
2019-06-15T20:14:56.609Z,23.10
2019-06-15T20:19:58.074Z,22.90
2019-06-15T20:25:00.308Z,22.80
2019-06-15T20:30:06.256Z,22.70
2019-06-15T20:35:17.361Z,22.60
2019-06-15T20:40:16.367Z,22.50
2019-06-15T20:45:17.293Z,22.50
2019-06-15T20:50:27.534Z,22.30
2019-06-15T20:55:22.499Z,22.30
2019-06-15T21:00:26.223Z,22.20
2019-06-15T21:05:37.767Z,22.10
2019-06-15T21:10:31.996Z,22.10
2019-06-15T21:15:41.980Z,22.00
2019-06-15T21:20:43.882Z,21.90
2019-06-15T21:25:46.630Z,21.80
2019-06-15T21:30:48.607Z,21.80
2019-06-15T21:35:52.729Z,21.70
2019-06-15T21:40:56.802Z,21.70
2019-06-15T21:45:57.941Z,21.50
2019-06-15T21:51:00.818Z,21.40
2019-06-15T21:56:02.822Z,21.50
2019-06-15T22:01:31.839Z,21.20
2019-06-15T22:06:33.523Z,21.20
2019-06-15T22:11:36.243Z,21.00
2019-06-15T22:16:38.001Z,20.80
2019-06-15T22:21:39.693Z,20.70
2019-06-15T22:26:41.287Z,20.60
2019-06-15T22:31:42.914Z,20.50
2019-06-15T22:36:44.615Z,20.40
2019-06-15T22:41:46.997Z,20.30
2019-06-15T22:46:48.904Z,20.20
2019-06-15T22:51:50.493Z,20.10
2019-06-15T22:56:52.100Z,20.00
2019-06-15T23:01:54.167Z,19.90
2019-06-15T23:06:56.502Z,19.90
2019-06-15T23:11:58.671Z,19.90
2019-06-15T23:17:00.323Z,19.90
2019-06-15T23:22:01.917Z,19.70
2019-06-15T23:27:03.522Z,19.50
2019-06-15T23:32:06.287Z,19.50
2019-06-15T23:37:10.270Z,19.40
2019-06-15T23:42:11.873Z,19.30
2019-06-15T23:47:13.824Z,19.20
2019-06-15T23:52:15.935Z,19.20
2019-06-15T23:57:17.697Z,19.10
